Time;durP1;ratioP1;P1;durP2;ratioP2;P2;SDS_P1;SDS_P2;PMS_P1;PMS_P2;Temp;Humidity;BMP_temperature;BMP_pressure;BME280_temperature;BME280_humidity;BME280_pressure;Samples;Min_cycle;Max_cycle;Signal;HPM_P1;HPM_P2
2022/01/08 00:00:43;;;;;;;28.40;9.10;;;;;;;3.64;100.00;100618.97;5041731;28;20052;-72
2022/01/08 00:03:10;;;;;;;22.63;10.40;;;;;;;3.66;100.00;100621.38;5052718;28;20053;-72
2022/01/08 00:05:36;;;;;;;24.75;9.18;;;;;;;3.63;100.00;100616.59;5050462;28;20761;-70
2022/01/08 00:08:04;;;;;;;22.52;10.43;;;;;;;3.61;100.00;100616.94;5033354;28;20076;-74
2022/01/08 00:10:31;;;;;;;21.35;9.45;;;;;;;3.57;100.00;100615.25;5048457;28;20057;-73
2022/01/08 00:13:02;;;;;;;19.38;8.23;;;;;;;3.53;100.00;100620.66;5051198;28;20136;-73
2022/01/08 00:15:28;;;;;;;24.10;9.63;;;;;;;3.50;100.00;100617.81;5049956;28;20133;-72
2022/01/08 00:17:55;;;;;;;20.70;9.70;;;;;;;3.52;100.00;100615.53;5044589;28;20209;-70
2022/01/08 00:20:22;;;;;;;24.02;9.68;;;;;;;3.50;100.00;100615.91;5050181;28;20124;-73
2022/01/08 00:22:52;;;;;;;19.48;7.57;;;;;;;3.49;100.00;100622.53;5046855;28;20052;-73
2022/01/08 00:25:20;;;;;;;24.98;9.63;;;;;;;3.50;100.00;100618.63;5049516;28;20068;-73
2022/01/08 00:27:48;;;;;;;25.10;11.02;;;;;;;3.52;100.00;100615.53;5040830;28;20140;-73
2022/01/08 00:30:15;;;;;;;20.17;9.30;;;;;;;3.47;100.00;100613.84;5047305;28;20128;-72
2022/01/08 00:32:45;;;;;;;21.08;9.68;;;;;;;3.46;100.00;100616.94;5036390;28;20053;-74
2022/01/08 00:35:12;;;;;;;24.50;10.65;;;;;;;3.46;100.00;100623.22;5042115;28;20047;-76
2022/01/08 00:37:40;;;;;;;25.67;11.05;;;;;;;3.46;100.00;100625.97;5051580;28;20509;-73
2022/01/08 00:40:09;;;;;;;29.38;10.85;;;;;;;3.45;100.00;100618.91;5032455;28;20057;-73
2022/01/08 00:42:38;;;;;;;23.13;9.60;;;;;;;3.42;100.00;100613.31;5046832;28;20049;-73
2022/01/08 00:45:05;;;;;;;25.83;11.02;;;;;;;3.38;100.00;100618.72;5045846;28;20568;-73
2022/01/08 00:47:33;;;;;;;27.63;11.35;;;;;;;3.37;100.00;100622.59;5040120;28;20061;-74
2022/01/08 00:50:01;;;;;;;23.70;11.27;;;;;;;3.34;100.00;100623.28;5049600;28;20139;-73
2022/01/08 00:52:28;;;;;;;22.70;10.73;;;;;;;3.29;100.00;100626.28;5039439;28;20117;-72
2022/01/08 00:54:55;;;;;;;24.63;10.60;;;;;;;3.28;100.00;100630.19;5053935;28;20162;-73
2022/01/08 00:57:23;;;;;;;29.70;11.20;;;;;;;3.25;100.00;100627.34;5053907;28;20796;-74
2022/01/08 00:59:55;;;;;;;26.00;10.98;;;;;;;3.19;100.00;100621.34;5040720;28;20489;-72
2022/01/08 01:02:22;;;;;;;23.15;10.40;;;;;;;3.14;100.00;100623.53;5040514;28;20119;-72
2022/01/08 01:04:50;;;;;;;26.10;11.13;;;;;;;3.09;100.00;100634.69;5030660;28;20049;-72
2022/01/08 01:07:19;;;;;;;20.02;10.20;;;;;;;3.04;100.00;100624.84;5038787;28;20498;-72
2022/01/08 01:09:47;;;;;;;21.42;9.98;;;;;;;2.96;100.00;100628.50;5051008;28;20103;-72
2022/01/08 01:12:15;;;;;;;37.25;12.98;;;;;;;2.91;100.00;100628.75;5049730;28;20056;-72
2022/01/08 01:15:03;;;;;;;28.33;12.00;;;;;;;2.87;100.00;100630.56;5056127;28;20048;-73
2022/01/08 01:17:30;;;;;;;27.17;11.35;;;;;;;2.81;100.00;100631.19;5033182;28;20128;-71
2022/01/08 01:19:57;;;;;;;26.30;11.20;;;;;;;2.78;100.00;100638.16;5042965;28;20103;-72
2022/01/08 01:22:29;;;;;;;31.45;11.73;;;;;;;2.76;100.00;100639.63;5049613;28;20072;-72
2022/01/08 01:25:03;;;;;;;25.90;11.35;;;;;;;2.71;100.00;100637.94;5040894;28;20057;-72
2022/01/08 01:30:15;;;;;;;27.15;12.43;;;;;;;2.54;100.00;100628.06;5050979;28;20087;-74
2022/01/08 01:49:36;;;;;;;25.80;12.65;;;;;;;2.37;100.00;100633.81;5025288;28;20052;-71
2022/01/08 01:52:04;;;;;;;31.40;13.65;;;;;;;2.37;100.00;100643.94;5010756;28;20073;-75
2022/01/08 01:54:32;;;;;;;31.77;14.50;;;;;;;2.36;100.00;100653.25;5009102;28;20054;-74
2022/01/08 01:57:00;;;;;;;30.25;14.45;;;;;;;2.32;100.00;100657.81;5025527;28;20080;-72
2022/01/08 01:59:29;;;;;;;36.33;13.23;;;;;;;2.27;100.00;100658.06;5009857;28;20132;-71
2022/01/08 02:01:56;;;;;;;31.45;14.50;;;;;;;2.26;100.00;100657.25;5023776;28;20080;-74
2022/01/08 02:04:23;;;;;;;31.33;13.82;;;;;;;2.26;100.00;100667.41;5022640;28;20661;-73
2022/01/08 02:06:50;;;;;;;28.85;13.93;;;;;;;2.20;100.00;100657.84;5040000;28;20049;-73
2022/01/08 02:09:17;;;;;;;29.80;13.68;;;;;;;2.13;100.00;100663.88;5010487;28;20059;-71
2022/01/08 02:12:12;;;;;;;37.78;15.13;;;;;;;2.09;100.00;100653.97;5030407;28;20416;-73
2022/01/08 02:14:39;;;;;;;37.05;16.63;;;;;;;2.07;100.00;100661.72;5019804;28;20129;-72
2022/01/08 02:17:08;;;;;;;35.53;17.25;;;;;;;2.07;100.00;100653.53;5017558;28;20061;-72
2022/01/08 02:19:35;;;;;;;34.42;16.17;;;;;;;2.05;100.00;100670.25;5015845;28;20081;-72
2022/01/08 02:22:04;;;;;;;39.30;18.20;;;;;;;2.08;100.00;100655.13;5030840;28;20214;-71
2022/01/08 02:24:31;;;;;;;39.13;16.92;;;;;;;2.13;100.00;100654.91;5036498;28;20153;-72
2022/01/08 02:26:58;;;;;;;43.40;18.35;;;;;;;2.14;100.00;100661.94;5038915;28;20054;-72
2022/01/08 02:29:26;;;;;;;34.15;16.95;;;;;;;2.14;100.00;100662.75;5051315;28;20140;-74
2022/01/08 02:31:59;;;;;;;38.90;17.77;;;;;;;2.12;100.00;100653.28;5051008;28;20056;-72
2022/01/08 02:34:27;;;;;;;34.88;16.88;;;;;;;2.10;100.00;100650.13;5036811;28;20136;-71
2022/01/08 02:36:55;;;;;;;37.53;16.90;;;;;;;2.07;100.00;100650.81;5050633;28;20101;-71
2022/01/08 02:39:22;;;;;;;36.13;16.63;;;;;;;2.03;100.00;100645.22;5044592;28;20064;-74
2022/01/08 02:41:53;;;;;;;32.72;15.68;;;;;;;1.97;100.00;100640.34;5030156;28;20099;-71
2022/01/08 02:44:20;;;;;;;33.05;15.88;;;;;;;1.90;100.00;100642.84;5031873;28;20100;-71
2022/01/08 02:46:47;;;;;;;36.28;15.32;;;;;;;1.79;100.00;100633.53;5042965;28;20045;-72
2022/01/08 02:49:14;;;;;;;39.67;16.02;;;;;;;1.76;100.00;100642.41;5049336;28;20098;-71
2022/01/08 02:51:40;;;;;;;33.40;16.20;;;;;;;1.73;100.00;100630.25;5040815;28;20052;-72
2022/01/08 02:54:09;;;;;;;37.00;16.52;;;;;;;1.74;100.00;100629.09;5034026;28;20127;-71
2022/01/08 02:56:40;;;;;;;39.67;17.45;;;;;;;1.72;100.00;100634.09;5034149;28;20073;-71
2022/01/08 02:59:07;;;;;;;41.33;18.60;;;;;;;1.71;100.00;100637.16;5035192;28;20174;-72
2022/01/08 03:01:34;;;;;;;39.90;19.27;;;;;;;1.66;100.00;100624.53;5031045;28;20053;-74
2022/01/08 03:04:02;;;;;;;42.13;17.73;;;;;;;1.64;100.00;100626.81;5044681;28;20057;-72
2022/01/08 03:06:28;;;;;;;33.92;16.05;;;;;;;1.60;100.00;100625.91;5045403;28;20135;-71
2022/01/08 03:08:55;;;;;;;35.53;16.25;;;;;;;1.56;100.00;100637.81;5050475;28;20139;-71
2022/01/08 03:11:21;;;;;;;33.33;15.63;;;;;;;1.47;100.00;100634.41;5050311;28;20053;-71
2022/01/08 03:13:48;;;;;;;37.35;16.92;;;;;;;1.42;100.00;100634.63;5051175;28;20124;-72
2022/01/08 03:16:15;;;;;;;37.58;17.40;;;;;;;1.42;100.00;100634.63;5053496;28;20044;-69
2022/01/08 03:18:42;;;;;;;40.70;17.83;;;;;;;1.43;100.00;100639.75;5065937;28;20044;-71
2022/01/08 03:21:14;;;;;;;42.10;18.80;;;;;;;1.43;100.00;100641.66;5054205;28;20049;-73
2022/01/08 03:23:51;;;;;;;35.67;17.60;;;;;;;1.40;100.00;100645.88;5054935;28;20056;-71
2022/01/08 03:26:20;;;;;;;45.35;19.63;;;;;;;1.40;100.00;100642.34;5054073;28;20051;-73
2022/01/08 03:28:48;;;;;;;43.03;19.25;;;;;;;1.40;100.00;100639.59;5054142;28;20422;-73
2022/01/08 03:31:15;;;;;;;39.83;18.17;;;;;;;1.41;100.00;100638.47;5054755;28;20127;-71
2022/01/08 03:33:42;;;;;;;40.55;18.42;;;;;;;1.43;100.00;100638.94;5054849;28;20048;-73
2022/01/08 03:36:10;;;;;;;33.88;17.33;;;;;;;1.37;100.00;100643.81;5053231;28;20468;-73
2022/01/08 03:38:38;;;;;;;37.97;17.83;;;;;;;1.31;100.00;100642.44;5053626;28;20136;-73
2022/01/08 03:41:04;;;;;;;37.20;17.15;;;;;;;1.32;100.00;100640.50;5054639;28;20573;-73
2022/01/08 03:43:31;;;;;;;44.00;19.70;;;;;;;1.37;100.00;100649.28;5054812;28;20497;-74
2022/01/08 03:46:00;;;;;;;42.17;19.80;;;;;;;1.44;100.00;100652.22;5054085;28;20059;-72
2022/01/08 03:50:54;;;;;;;41.25;19.95;;;;;;;1.41;100.00;100663.00;5054111;28;20084;-74
2022/01/08 03:53:22;;;;;;;42.83;19.02;;;;;;;1.42;100.00;100659.16;5054164;28;20059;-73
2022/01/08 03:55:49;;;;;;;47.85;20.63;;;;;;;1.46;100.00;100660.06;5054730;28;20055;-73
2022/01/08 03:58:16;;;;;;;46.17;21.00;;;;;;;1.48;100.00;100671.44;5054477;28;20163;-74
2022/01/08 04:00:43;;;;;;;46.83;20.15;;;;;;;1.51;100.00;100674.28;5053638;28;20057;-72
2022/01/08 04:03:09;;;;;;;44.58;20.00;;;;;;;1.56;100.00;100676.00;5053896;28;20102;-72
2022/01/08 04:05:36;;;;;;;45.30;19.65;;;;;;;1.57;100.00;100683.84;5054431;28;20068;-73
2022/01/08 04:08:03;;;;;;;46.47;20.02;;;;;;;1.58;100.00;100682.72;5053910;28;20131;-72
2022/01/08 04:10:29;;;;;;;43.08;21.17;;;;;;;1.60;100.00;100693.28;5053814;28;20081;-72
2022/01/08 04:13:01;;;;;;;41.10;21.67;;;;;;;1.61;100.00;100689.41;5053915;28;20128;-72
2022/01/08 04:17:54;;;;;;;45.70;21.35;;;;;;;1.63;100.00;100696.13;5053606;28;20045;-75
2022/01/08 04:20:23;;;;;;;42.97;20.73;;;;;;;1.58;100.00;100693.63;5052618;28;20049;-74
2022/01/08 04:22:51;;;;;;;45.63;22.45;;;;;;;1.64;100.00;100705.91;5057176;28;20041;-73
2022/01/08 04:25:20;;;;;;;47.65;20.63;;;;;;;1.63;100.00;100701.59;5054854;28;20072;-72
2022/01/08 04:27:47;;;;;;;45.97;21.58;;;;;;;1.62;100.00;100710.13;5053667;28;20132;-73
2022/01/08 04:30:14;;;;;;;52.67;23.90;;;;;;;1.64;100.00;100713.28;5053738;28;20139;-72
2022/01/08 04:32:41;;;;;;;49.28;22.48;;;;;;;1.65;100.00;100714.91;5053398;28;20474;-75
2022/01/08 04:35:08;;;;;;;47.72;23.45;;;;;;;1.59;100.00;100705.34;5054794;28;20131;-72
2022/01/08 04:37:34;;;;;;;51.83;23.50;;;;;;;1.64;100.00;100724.19;5053457;28;20176;-72
2022/01/08 04:40:03;;;;;;;52.42;22.88;;;;;;;1.61;100.00;100719.41;5053288;28;20072;-74
2022/01/08 04:42:29;;;;;;;49.90;23.67;;;;;;;1.60;100.00;100715.09;5053292;28;20409;-72
2022/01/08 04:44:56;;;;;;;50.42;22.73;;;;;;;1.56;100.00;100716.91;5051927;28;20053;-73
2022/01/08 04:47:22;;;;;;;43.63;22.00;;;;;;;1.56;100.00;100727.81;5053345;28;20045;-71
2022/01/08 04:49:49;;;;;;;49.65;21.60;;;;;;;1.51;100.00;100726.09;5053269;28;20140;-71
2022/01/08 04:52:16;;;;;;;51.90;22.10;;;;;;;1.57;100.00;100729.41;5052806;28;20534;-72
2022/01/08 04:54:43;;;;;;;45.60;22.35;;;;;;;1.59;100.00;100729.88;5052911;28;20143;-70
2022/01/08 04:57:09;;;;;;;46.55;22.27;;;;;;;1.57;100.00;100735.66;5055441;28;20135;-72
2022/01/08 04:59:36;;;;;;;38.25;20.20;;;;;;;1.57;100.00;100740.31;5052161;28;20133;-72
2022/01/08 05:02:03;;;;;;;49.55;24.17;;;;;;;1.56;100.00;100739.53;5051980;28;20230;-70
2022/01/08 05:04:29;;;;;;;47.60;22.35;;;;;;;1.54;100.00;100738.25;5052396;28;20502;-71
2022/01/08 05:06:56;;;;;;;48.30;23.15;;;;;;;1.57;100.00;100746.56;5052356;28;20063;-73
2022/01/08 05:09:22;;;;;;;44.95;23.38;;;;;;;1.56;100.00;100736.81;5053266;28;20136;-72
2022/01/08 05:11:49;;;;;;;46.60;20.65;;;;;;;1.52;100.00;100738.59;5052643;28;20140;-71
2022/01/08 05:14:16;;;;;;;46.20;23.00;;;;;;;1.54;100.00;100730.88;5053353;28;20057;-72
2022/01/08 05:16:44;;;;;;;49.35;22.75;;;;;;;1.53;100.00;100744.84;5052731;28;20045;-70
2022/01/08 05:19:11;;;;;;;58.60;25.98;;;;;;;1.51;100.00;100731.53;5052887;28;20053;-72
2022/01/08 05:21:39;;;;;;;49.17;24.35;;;;;;;1.56;100.00;100745.00;5051573;28;20056;-72
2022/01/08 05:24:06;;;;;;;51.20;24.95;;;;;;;1.53;100.00;100739.38;5052919;28;20140;-72
2022/01/08 05:26:32;;;;;;;52.75;23.40;;;;;;;1.49;100.00;100747.44;5051224;28;20076;-72
2022/01/08 05:28:59;;;;;;;50.33;25.77;;;;;;;1.48;100.00;100740.41;5052596;28;20087;-72
2022/01/08 05:31:25;;;;;;;52.38;24.88;;;;;;;1.45;100.00;100737.56;5052160;28;20156;-73
2022/01/08 05:33:52;;;;;;;59.55;27.10;;;;;;;1.46;100.00;100739.16;5052709;28;20553;-72
2022/01/08 05:36:19;;;;;;;53.80;25.88;;;;;;;1.43;100.00;100739.81;5051318;28;20076;-72
2022/01/08 05:38:45;;;;;;;51.10;25.45;;;;;;;1.44;100.00;100744.94;5052496;28;20063;-71
2022/01/08 05:41:12;;;;;;;62.75;26.65;;;;;;;1.42;100.00;100743.69;5051578;28;20085;-70
2022/01/08 05:43:38;;;;;;;48.53;22.73;;;;;;;1.42;100.00;100735.50;5052155;28;20498;-71
2022/01/08 05:46:05;;;;;;;54.90;28.77;;;;;;;1.39;100.00;100739.69;5051815;28;20451;-72
2022/01/08 05:48:31;;;;;;;50.20;24.92;;;;;;;1.39;100.00;100753.31;5052385;28;20128;-73
2022/01/08 05:50:58;;;;;;;55.30;22.60;;;;;;;1.40;100.00;100745.94;5051969;28;20497;-73
2022/01/08 05:53:24;;;;;;;56.90;25.52;;;;;;;1.38;100.00;100742.75;5052233;28;20498;-72
2022/01/08 05:55:51;;;;;;;58.60;28.00;;;;;;;1.43;100.00;100742.53;5051737;28;20076;-71
2022/01/08 05:58:17;;;;;;;57.78;28.55;;;;;;;1.41;100.00;100748.31;5051939;28;20479;-72
2022/01/08 06:00:44;;;;;;;57.53;27.35;;;;;;;1.40;100.00;100745.94;5051971;28;20076;-75
2022/01/08 06:03:11;;;;;;;45.17;24.73;;;;;;;1.35;100.00;100749.66;5051883;28;20064;-72
2022/01/08 06:05:37;;;;;;;46.03;21.98;;;;;;;1.33;100.00;100748.41;5051467;28;20559;-73
2022/01/08 06:08:04;;;;;;;53.47;27.50;;;;;;;1.37;100.00;100754.78;5051833;28;20088;-71
2022/01/08 06:10:31;;;;;;;53.03;25.20;;;;;;;1.34;100.00;100758.16;5051578;28;20144;-72
2022/01/08 06:12:57;;;;;;;36.30;17.13;;;;;;;1.35;100.00;100762.50;5051430;28;20052;-72
2022/01/08 06:15:24;;;;;;;48.33;23.90;;;;;;;1.35;100.00;100757.06;5051677;28;20452;-71
2022/01/08 06:17:53;;;;;;;53.58;25.80;;;;;;;1.34;100.00;100758.16;5051259;28;20059;-73
2022/01/08 06:20:19;;;;;;;52.03;26.58;;;;;;;1.38;100.00;100764.56;5051510;28;20111;-72
2022/01/08 06:22:46;;;;;;;53.08;24.90;;;;;;;1.27;100.00;100756.00;5051447;28;20374;-70
2022/01/08 06:25:13;;;;;;;49.50;25.02;;;;;;;1.34;100.00;100758.97;5051271;28;20143;-71
2022/01/08 06:27:39;;;;;;;45.30;22.08;;;;;;;1.31;100.00;100769.75;5049726;28;20048;-72
2022/01/08 06:30:06;;;;;;;53.17;26.13;;;;;;;1.36;100.00;100772.28;5051141;28;20059;-73
2022/01/08 06:32:33;;;;;;;53.22;25.83;;;;;;;1.35;100.00;100778.88;5051363;28;20052;-72
2022/01/08 06:35:01;;;;;;;57.42;27.42;;;;;;;1.33;100.00;100768.28;5049859;28;20099;-71
2022/01/08 06:37:27;;;;;;;49.40;24.98;;;;;;;1.28;100.00;100756.81;5051994;28;20045;-72
2022/01/08 06:39:54;;;;;;;43.35;22.88;;;;;;;1.28;100.00;100764.97;5052755;28;20045;-71
2022/01/08 06:42:21;;;;;;;54.45;26.48;;;;;;;1.29;100.00;100786.47;5059768;28;20052;-70
2022/01/08 06:44:47;;;;;;;46.25;21.10;;;;;;;1.24;100.00;100791.28;5065150;28;20072;-74
2022/01/08 06:47:14;;;;;;;53.92;23.80;;;;;;;1.29;100.00;100793.81;5050933;28;20041;-72
2022/01/08 06:49:43;;;;;;;49.70;22.98;;;;;;;1.25;100.00;100803.81;5050496;28;20143;-72
2022/01/08 06:52:10;;;;;;;44.90;22.75;;;;;;;1.24;100.00;100810.38;5049930;28;20076;-72
2022/01/08 06:54:36;;;;;;;43.13;18.20;;;;;;;1.23;100.00;100812.31;5049455;28;20139;-72
2022/01/08 06:57:04;;;;;;;40.30;19.40;;;;;;;1.26;100.00;100814.38;5050887;28;20132;-72
2022/01/08 06:59:30;;;;;;;20.02;8.07;;;;;;;1.26;100.00;100811.66;5052846;28;20132;-74
2022/01/08 07:01:56;;;;;;;52.88;25.88;;;;;;;1.38;100.00;100816.38;5049384;28;20056;-71
2022/01/08 07:04:23;;;;;;;42.70;21.23;;;;;;;1.40;100.00;100811.38;5050160;28;20049;-72
2022/01/08 07:06:50;;;;;;;46.45;22.70;;;;;;;1.37;100.00;100822.94;5050657;28;20580;-71
2022/01/08 07:09:16;;;;;;;13.98;6.78;;;;;;;1.35;100.00;100814.31;5049739;28;20141;-72
2022/01/08 07:11:43;;;;;;;14.35;8.68;;;;;;;1.37;100.00;100826.47;5050074;28;20479;-72
2022/01/08 07:14:09;;;;;;;28.33;14.85;;;;;;;1.38;100.00;100824.56;5047820;28;20104;-71
2022/01/08 07:16:37;;;;;;;25.60;10.63;;;;;;;1.41;100.00;100823.84;5045050;28;20069;-71
2022/01/08 07:19:04;;;;;;;34.70;16.63;;;;;;;1.44;100.00;100817.75;5047347;28;20053;-74
2022/01/08 07:21:30;;;;;;;5.38;3.25;;;;;;;1.45;100.00;100824.81;5048802;28;20495;-73
2022/01/08 07:23:59;;;;;;;36.70;21.63;;;;;;;1.46;100.00;100823.66;5049450;28;20055;-73
2022/01/08 07:26:26;;;;;;;34.47;15.40;;;;;;;1.44;100.00;100824.00;5032585;28;20415;-72
2022/01/08 07:28:54;;;;;;;39.13;15.38;;;;;;;1.45;100.00;100825.59;5050752;28;20049;-73
2022/01/08 07:31:22;;;;;;;50.85;25.17;;;;;;;1.44;100.00;100821.28;5042504;28;20145;-71
2022/01/08 07:33:49;;;;;;;22.92;10.43;;;;;;;1.43;100.00;100825.13;5033782;28;20099;-70
2022/01/08 07:36:17;;;;;;;25.42;12.57;;;;;;;1.42;100.00;100830.94;5050563;28;20498;-75
2022/01/08 07:38:45;;;;;;;29.42;14.77;;;;;;;1.46;100.00;100831.84;5051051;28;20556;-72
2022/01/08 07:41:11;;;;;;;18.33;9.05;;;;;;;1.39;100.00;100820.69;5040034;28;20410;-71
2022/01/08 07:43:38;;;;;;;50.40;23.42;;;;;;;1.50;100.00;100828.13;5041590;28;20053;-73
2022/01/08 07:46:06;;;;;;;13.38;6.65;;;;;;;1.46;100.00;100827.19;5033969;28;20075;-72
2022/01/08 07:48:33;;;;;;;18.15;7.57;;;;;;;1.50;100.00;100825.41;5030939;28;20053;-73
2022/01/08 07:51:01;;;;;;;35.88;17.67;;;;;;;1.51;100.00;100832.44;5034433;28;20182;-73
2022/01/08 07:53:27;;;;;;;51.47;26.63;;;;;;;1.53;100.00;100829.38;5053647;28;20052;-72
2022/01/08 07:55:54;;;;;;;62.13;29.85;;;;;;;1.60;100.00;100837.81;5049944;28;20508;-72
2022/01/08 07:58:21;;;;;;;11.30;5.20;;;;;;;1.59;100.00;100841.69;5050232;28;20053;-72
2022/01/08 08:00:48;;;;;;;30.63;14.45;;;;;;;1.58;100.00;100837.34;5049194;28;20601;-72
2022/01/08 08:03:15;;;;;;;46.78;18.95;;;;;;;1.57;100.00;100841.22;5049753;28;20054;-72
2022/01/08 08:05:42;;;;;;;17.50;8.60;;;;;;;1.59;100.00;100830.78;5054236;28;20045;-72
2022/01/08 08:08:08;;;;;;;16.60;9.45;;;;;;;1.63;100.00;100839.88;5052333;28;20034;-72
2022/01/08 08:10:35;;;;;;;38.05;18.75;;;;;;;1.67;100.00;100840.81;5053591;28;20041;-76
2022/01/08 08:13:01;;;;;;;35.67;19.35;;;;;;;1.67;100.00;100838.06;5053337;28;20099;-72
2022/01/08 08:15:28;;;;;;;25.65;12.95;;;;;;;1.67;100.00;100851.72;5053548;28;20049;-73
2022/01/08 08:17:54;;;;;;;50.03;24.33;;;;;;;1.71;100.00;100839.81;5052056;28;20057;-72
2022/01/08 08:20:21;;;;;;;38.28;20.60;;;;;;;1.70;100.00;100834.69;5053685;28;20110;-73
2022/01/08 08:22:48;;;;;;;29.35;14.15;;;;;;;1.72;100.00;100826.97;5053470;28;20128;-72
2022/01/08 08:25:15;;;;;;;59.95;29.17;;;;;;;1.77;100.00;100827.56;5053002;28;20087;-72
2022/01/08 08:27:42;;;;;;;36.85;16.52;;;;;;;1.70;100.00;100823.78;5051619;28;20068;-73
2022/01/08 08:30:09;;;;;;;52.38;24.25;;;;;;;1.76;100.00;100819.72;5053007;28;20139;-71
2022/01/08 08:32:37;;;;;;;41.42;18.33;;;;;;;1.83;100.00;100834.38;5052750;28;20053;-73
2022/01/08 08:35:04;;;;;;;61.10;27.08;;;;;;;1.87;100.00;100826.31;5056833;28;20056;-72
2022/01/08 08:37:34;;;;;;;36.22;16.15;;;;;;;1.84;100.00;100821.53;5054238;28;20573;-72
2022/01/08 08:40:01;;;;;;;69.72;32.25;;;;;;;1.95;100.00;100822.69;5051106;28;20132;-73
2022/01/08 08:42:28;;;;;;;20.25;10.90;;;;;;;1.90;100.00;100820.19;5039281;28;20071;-74
2022/01/08 08:44:54;;;;;;;17.25;11.10;;;;;;;1.92;100.00;100818.72;5052528;28;20084;-72
2022/01/08 08:47:21;;;;;;;38.63;18.50;;;;;;;1.88;100.00;100806.09;5051641;28;20052;-72
2022/01/08 08:49:48;;;;;;;53.67;25.33;;;;;;;2.01;100.00;100819.44;5050298;28;20053;-72
2022/01/08 08:52:15;;;;;;;43.83;17.40;;;;;;;2.04;100.00;100828.88;5051889;28;20397;-70
2022/01/08 08:54:43;;;;;;;45.38;20.50;;;;;;;2.13;100.00;100818.66;5052178;28;20118;-71
2022/01/08 08:57:10;;;;;;;44.42;18.33;;;;;;;2.06;100.00;100818.44;5050858;28;20045;-72
2022/01/08 08:59:37;;;;;;;35.00;18.38;;;;;;;2.06;100.00;100810.25;5057639;28;20048;-73
2022/01/08 09:02:04;;;;;;;63.03;25.83;;;;;;;2.11;100.00;100810.81;5065647;28;20131;-73
2022/01/08 09:04:30;;;;;;;52.72;21.17;;;;;;;2.13;100.00;100810.47;5051139;28;20067;-72
2022/01/08 09:06:57;;;;;;;62.60;27.50;;;;;;;2.18;100.00;100813.78;5051575;28;20137;-74
2022/01/08 09:09:24;;;;;;;72.50;29.33;;;;;;;2.24;100.00;100814.34;5054785;28;20076;-72
2022/01/08 09:11:51;;;;;;;43.92;18.35;;;;;;;2.24;100.00;100814.34;5051410;28;20099;-75
2022/01/08 09:14:18;;;;;;;53.72;21.63;;;;;;;2.25;100.00;100813.22;5051251;28;20496;-74
2022/01/08 09:16:49;;;;;;;83.57;33.17;;;;;;;2.33;100.00;100810.38;5051169;28;20040;-72
2022/01/08 09:19:17;;;;;;;72.72;32.00;;;;;;;2.33;100.00;100801.41;5051881;28;20098;-74
2022/01/08 09:21:44;;;;;;;50.67;19.27;;;;;;;2.34;100.00;100820.19;5050840;28;20128;-71
2022/01/08 09:24:12;;;;;;;71.10;28.25;;;;;;;2.34;100.00;100803.00;5033824;28;20123;-73
2022/01/08 09:26:39;;;;;;;53.22;23.83;;;;;;;2.45;100.00;100815.06;5050533;28;20053;-72
2022/01/08 09:29:06;;;;;;;31.00;14.43;;;;;;;2.45;100.00;100810.41;5050980;28;20068;-75
2022/01/08 09:31:33;;;;;;;46.25;21.00;;;;;;;2.50;100.00;100795.72;5041080;28;20083;-72
2022/01/08 09:34:00;;;;;;;57.95;23.83;;;;;;;2.51;100.00;100808.25;5036175;28;20140;-70
2022/01/08 09:36:27;;;;;;;54.60;26.00;;;;;;;2.46;100.00;100806.53;5043228;28;20470;-72
2022/01/08 09:38:54;;;;;;;66.53;28.67;;;;;;;2.62;100.00;100809.38;5041519;28;20049;-73
2022/01/08 09:41:21;;;;;;;49.50;19.92;;;;;;;2.56;100.00;100805.28;5061584;28;20060;-74
2022/01/08 09:43:48;;;;;;;38.28;16.50;;;;;;;2.61;100.00;100805.84;5050567;28;20057;-70
2022/01/08 09:46:16;;;;;;;37.60;16.92;;;;;;;2.64;100.00;100794.22;5047414;28;20113;-71
2022/01/08 09:48:43;;;;;;;57.65;25.08;;;;;;;2.63;100.00;100792.66;5037962;28;20486;-72
2022/01/08 09:51:10;;;;;;;47.03;20.63;;;;;;;2.69;100.00;100804.13;5050684;28;20055;-71
2022/01/08 09:53:37;;;;;;;44.47;19.05;;;;;;;2.67;100.00;100796.28;5041585;28;20049;-72
2022/01/08 09:56:04;;;;;;;54.70;19.00;;;;;;;2.66;100.00;100793.88;5034196;28;20049;-76
2022/01/08 09:58:31;;;;;;;43.03;18.55;;;;;;;2.78;100.00;100784.88;5028570;28;22121;-74
2022/01/08 10:00:58;;;;;;;43.47;16.67;;;;;;;2.78;100.00;100790.34;5031375;28;20059;-73
2022/01/08 10:03:31;;;;;;;47.67;16.55;;;;;;;2.82;100.00;100785.78;5037555;28;20143;-71
2022/01/08 10:05:58;;;;;;;51.70;23.02;;;;;;;2.81;100.00;100801.41;5049909;28;20049;-74
2022/01/08 10:08:42;;;;;;;45.38;19.85;;;;;;;2.91;100.00;100784.53;5040487;28;20060;-74
2022/01/08 10:11:10;;;;;;;43.83;16.95;;;;;;;2.93;100.00;100779.50;5035475;28;20053;-75
2022/01/08 10:13:42;;;;;;;35.45;13.93;;;;;;;2.97;100.00;100783.13;5038447;28;20053;-72
2022/01/08 10:19:00;;;;;;;48.30;20.35;;;;;;;3.02;100.00;100773.91;5029928;28;20057;-72
2022/01/08 10:21:29;;;;;;;38.90;17.75;;;;;;;3.04;100.00;100757.97;5033371;28;20095;-72
2022/01/08 10:24:04;;;;;;;30.27;13.40;;;;;;;3.10;100.00;100754.63;5034382;28;20055;-75
2022/01/08 10:26:36;;;;;;;13.60;5.90;;;;;;;3.14;100.00;100760.22;5032589;28;20049;-73
2022/01/08 10:29:05;;;;;;;38.33;13.80;;;;;;;3.16;100.00;100736.84;5032976;28;20312;-73
2022/01/08 10:31:32;;;;;;;30.77;11.70;;;;;;;3.25;100.00;100740.25;5039912;28;20135;-74
2022/01/08 10:34:14;;;;;;;28.40;11.68;;;;;;;3.21;100.00;100733.88;5042480;28;20102;-76
2022/01/08 10:36:45;;;;;;;24.20;10.52;;;;;;;3.27;100.00;100727.00;5030957;28;20143;-74
2022/01/08 10:39:28;;;;;;;46.88;19.45;;;;;;;3.29;100.00;100705.59;5029851;28;20073;-72
2022/01/08 10:41:57;;;;;;;23.05;8.80;;;;;;;3.41;100.00;100700.03;5032412;28;20757;-75
2022/01/08 10:44:28;;;;;;;32.10;12.10;;;;;;;3.49;100.00;100682.69;5028286;28;20099;-74
2022/01/08 10:47:00;;;;;;;28.40;10.57;;;;;;;3.54;100.00;100681.66;5033368;28;20395;-74
2022/01/08 10:49:36;;;;;;;32.97;12.57;;;;;;;3.59;100.00;100665.78;5024628;28;20065;-74
2022/01/08 10:52:09;;;;;;;20.05;8.55;;;;;;;3.70;100.00;100671.50;5048313;28;20040;-75
2022/01/08 10:54:38;;;;;;;26.73;13.27;;;;;;;3.75;100.00;100665.78;5065099;28;20070;-73
2022/01/08 10:57:07;;;;;;;36.13;15.52;;;;;;;3.69;100.00;100668.00;5054826;28;20057;-72
2022/01/08 10:59:36;;;;;;;29.17;10.15;;;;;;;3.79;100.00;100659.25;5033355;28;20131;-72
2022/01/08 11:02:06;;;;;;;25.05;9.73;;;;;;;3.85;100.00;100666.03;5031256;28;20052;-71
2022/01/08 11:04:37;;;;;;;30.35;9.75;;;;;;;3.83;100.00;100651.13;5031087;28;20041;-71
2022/01/08 11:07:17;;;;;;;38.45;14.98;;;;;;;3.94;100.00;100650.22;5030087;28;20101;-71
2022/01/08 11:09:47;;;;;;;30.95;15.30;;;;;;;3.82;100.00;100660.47;5031379;28;20873;-70
2022/01/08 11:12:25;;;;;;;22.38;8.93;;;;;;;3.91;100.00;100636.47;5038444;28;20371;-73
2022/01/08 11:17:24;;;;;;;25.55;9.32;;;;;;;3.99;100.00;100616.31;5027537;28;20045;-73
2022/01/08 11:20:04;;;;;;;26.70;10.80;;;;;;;4.00;100.00;100607.75;5029691;28;20119;-72
2022/01/08 11:22:32;;;;;;;37.42;14.45;;;;;;;4.03;100.00;100590.63;5037593;28;20140;-72
2022/01/08 11:25:01;;;;;;;7.43;3.42;;;;;;;4.24;100.00;100585.63;5028852;28;20045;-74
2022/01/08 11:27:52;;;;;;;22.35;7.57;;;;;;;4.30;100.00;100577.91;5027944;28;20144;-72
2022/01/08 11:30:22;;;;;;;32.53;13.25;;;;;;;4.24;100.00;100573.84;5027882;28;20128;-71
2022/01/08 11:32:52;;;;;;;31.75;12.55;;;;;;;4.25;100.00;100589.94;5030668;28;20076;-72
2022/01/08 11:35:39;;;;;;;23.05;9.15;;;;;;;4.31;100.00;100574.81;5036608;28;20421;-78
2022/01/08 11:38:08;;;;;;;29.05;11.90;;;;;;;4.45;100.00;100575.09;5032812;28;20049;-73
2022/01/08 11:40:37;;;;;;;29.70;10.23;;;;;;;4.42;100.00;100573.09;5034097;28;20943;-72
2022/01/08 11:43:07;;;;;;;29.20;12.27;;;;;;;4.56;100.00;100562.41;5049674;28;20095;-71